createdAt,value
2018-06-04T00:00:03.426Z,17.30
2018-06-04T00:02:32.151Z,17.30
2018-06-04T00:05:00.875Z,17.10
2018-06-04T00:09:58.560Z,17.00
2018-06-04T00:14:55.783Z,16.90
2018-06-04T00:17:24.467Z,16.90
2018-06-04T00:19:53.152Z,16.90
2018-06-04T00:22:21.822Z,16.90
2018-06-04T00:24:50.512Z,16.80
2018-06-04T00:27:19.311Z,16.80
2018-06-04T00:29:47.978Z,16.70
2018-06-04T00:32:16.735Z,16.70
2018-06-04T00:34:45.439Z,16.60
2018-06-04T00:37:14.138Z,16.60
2018-06-04T00:39:42.901Z,16.50
2018-06-04T00:42:11.573Z,16.50
2018-06-04T00:44:40.256Z,16.40
2018-06-04T00:47:08.931Z,16.40
2018-06-04T00:52:06.206Z,16.30
2018-06-04T00:54:34.899Z,16.30
2018-06-04T00:57:03.704Z,16.30
2018-06-04T00:59:32.386Z,16.20
2018-06-04T01:02:01.089Z,16.10
2018-06-04T01:04:29.778Z,16.10
2018-06-04T01:06:58.466Z,16.00
2018-06-04T01:09:27.179Z,15.90
2018-06-04T01:11:55.879Z,16.00
2018-06-04T01:14:24.584Z,16.00
2018-06-04T01:19:21.776Z,15.90
2018-06-04T01:21:50.454Z,15.90
2018-06-04T01:24:19.111Z,15.90
2018-06-04T01:29:16.281Z,15.80
2018-06-04T01:36:41.987Z,15.70
2018-06-04T01:39:10.697Z,15.70
2018-06-04T01:41:39.379Z,15.80
2018-06-04T01:44:08.080Z,15.80
2018-06-04T01:46:36.795Z,15.80
2018-06-04T01:49:05.534Z,15.70
2018-06-04T01:51:34.232Z,15.70
2018-06-04T01:54:02.927Z,15.70
2018-06-04T01:59:00.114Z,15.50
2018-06-04T02:01:28.796Z,15.50
2018-06-04T02:03:57.492Z,15.40
2018-06-04T02:06:26.171Z,15.40
2018-06-04T02:08:54.838Z,15.30
2018-06-04T02:11:23.532Z,15.20
2018-06-04T02:13:52.240Z,15.20
2018-06-04T02:16:20.954Z,15.10
2018-06-04T02:18:49.651Z,15.10
2018-06-04T02:21:18.330Z,14.90
2018-06-04T02:23:46.995Z,14.80
2018-06-04T02:26:15.765Z,14.80
2018-06-04T02:28:44.451Z,14.80
2018-06-04T02:31:13.115Z,14.70
2018-06-04T02:33:41.837Z,14.70
2018-06-04T02:36:10.495Z,14.70
2018-06-04T02:38:39.170Z,14.70
2018-06-04T02:43:36.350Z,14.70
2018-06-04T02:46:05.163Z,14.70
2018-06-04T02:48:33.896Z,14.70
2018-06-04T02:51:02.632Z,14.80
2018-06-04T02:53:31.342Z,14.70
2018-06-04T02:56:00.075Z,14.70
2018-06-04T02:58:28.757Z,14.70
2018-06-04T03:00:57.482Z,14.70
2018-06-04T03:03:26.195Z,14.70
2018-06-04T03:05:54.870Z,14.70
2018-06-04T03:08:23.532Z,14.60
2018-06-04T03:10:52.505Z,14.60
2018-06-04T03:13:21.202Z,14.60
2018-06-04T03:15:49.869Z,14.60
2018-06-04T03:18:18.620Z,14.70
2018-06-04T03:20:47.384Z,14.80
2018-06-04T03:23:16.122Z,14.90
2018-06-04T03:25:44.845Z,14.90
2018-06-04T03:28:13.559Z,15.00
2018-06-04T03:30:42.275Z,15.10
2018-06-04T03:33:11.006Z,15.10
2018-06-04T03:35:39.692Z,15.20
2018-06-04T03:38:08.401Z,15.20
2018-06-04T03:40:37.072Z,15.20
2018-06-04T03:43:05.779Z,15.40
2018-06-04T03:45:34.444Z,15.50
2018-06-04T03:48:03.130Z,15.50
2018-06-04T03:50:31.805Z,15.60
2018-06-04T03:53:00.531Z,15.70
2018-06-04T03:55:29.206Z,15.80
2018-06-04T03:57:57.894Z,15.80
2018-06-04T04:00:26.566Z,15.90
2018-06-04T04:02:55.316Z,15.80
2018-06-04T04:05:24.004Z,15.60
2018-06-04T04:07:52.678Z,15.70
2018-06-04T04:10:21.371Z,15.80
2018-06-04T04:12:50.065Z,16.20
2018-06-04T04:15:18.731Z,16.40
2018-06-04T04:17:47.406Z,16.70
2018-06-04T04:20:16.093Z,16.80
2018-06-04T04:22:45.651Z,16.80
2018-06-04T04:25:15.131Z,16.80
2018-06-04T04:27:43.808Z,16.80
2018-06-04T04:30:12.491Z,16.50
2018-06-04T04:32:41.198Z,16.30
2018-06-04T04:35:09.859Z,16.10
2018-06-04T04:37:38.554Z,16.00
2018-06-04T04:40:07.263Z,16.10
2018-06-04T04:42:35.952Z,16.10
2018-06-04T04:45:04.741Z,16.20
2018-06-04T04:47:33.458Z,16.30
2018-06-04T04:52:30.673Z,16.50
2018-06-04T04:54:59.359Z,16.60
2018-06-04T04:57:28.062Z,16.80
2018-06-04T04:59:56.754Z,16.90
2018-06-04T05:02:25.426Z,17.00
2018-06-04T05:04:54.099Z,17.10
2018-06-04T05:07:22.872Z,17.30
2018-06-04T05:09:51.606Z,17.40
2018-06-04T05:12:20.279Z,17.60
2018-06-04T05:14:48.987Z,17.80
2018-06-04T05:19:46.246Z,18.60
2018-06-04T05:22:14.914Z,18.90
2018-06-04T05:24:43.676Z,19.20
2018-06-04T05:27:12.414Z,19.40
2018-06-04T05:32:11.138Z,19.80
2018-06-04T05:34:39.849Z,20.10
2018-06-04T05:37:08.664Z,20.40
2018-06-04T05:39:37.387Z,20.80
2018-06-04T05:42:06.146Z,20.90
2018-06-04T05:44:34.830Z,21.10
2018-06-04T05:47:03.577Z,21.10
2018-06-04T05:49:32.253Z,21.20
2018-06-04T05:52:00.999Z,21.40
2018-06-04T05:54:29.799Z,21.30
2018-06-04T05:56:58.499Z,21.20
2018-06-04T05:59:27.192Z,21.40
2018-06-04T06:01:55.909Z,21.60
2018-06-04T06:04:24.669Z,21.50
2018-06-04T06:06:53.387Z,21.40
2018-06-04T06:09:22.080Z,21.50
2018-06-04T06:11:50.823Z,21.80
2018-06-04T06:14:19.571Z,21.90
2018-06-04T06:16:48.289Z,21.90
2018-06-04T06:19:16.974Z,22.40
2018-06-04T06:21:45.689Z,22.70
2018-06-04T06:24:14.421Z,22.90
2018-06-04T06:29:12.616Z,23.10
2018-06-04T06:31:41.348Z,23.20
2018-06-04T06:34:10.083Z,23.50
2018-06-04T06:36:38.826Z,23.60
2018-06-04T06:39:09.099Z,23.50
2018-06-04T06:46:35.054Z,23.40
2018-06-04T06:51:32.306Z,23.50
2018-06-04T06:54:01.125Z,23.70
2018-06-04T06:56:29.839Z,23.50
2018-06-04T06:58:58.674Z,23.10
2018-06-04T07:01:27.396Z,22.90
2018-06-04T07:03:56.294Z,22.90
2018-06-04T07:06:24.984Z,23.00
2018-06-04T07:08:53.788Z,23.10
2018-06-04T07:11:23.173Z,23.30
2018-06-04T07:13:51.924Z,23.30
2018-06-04T07:18:49.211Z,23.10
2018-06-04T07:21:17.947Z,23.10
2018-06-04T07:23:46.679Z,23.00
2018-06-04T07:29:00.029Z,23.00
2018-06-04T07:31:28.761Z,23.10
2018-06-04T07:33:57.525Z,22.80
2018-06-04T07:36:26.281Z,22.70
2018-06-04T07:38:55.017Z,22.70
2018-06-04T07:41:23.797Z,22.90
2018-06-04T07:43:52.576Z,22.90
2018-06-04T07:46:21.372Z,23.10
2018-06-04T07:48:50.137Z,23.10
2018-06-04T07:51:18.861Z,23.00
2018-06-04T07:53:47.559Z,22.80
2018-06-04T07:56:16.392Z,22.70
2018-06-04T07:58:45.166Z,22.50
2018-06-04T08:03:42.486Z,22.70
2018-06-04T08:06:11.215Z,22.90
2018-06-04T08:11:09.131Z,22.90
2018-06-04T08:13:37.819Z,23.00
2018-06-04T08:16:06.579Z,23.10
2018-06-04T08:18:35.312Z,23.30
2018-06-04T08:21:04.054Z,23.60
2018-06-04T08:23:32.801Z,24.00
2018-06-04T08:26:01.587Z,24.40
2018-06-04T08:28:30.317Z,24.60
2018-06-04T08:30:59.064Z,25.20
2018-06-04T08:33:27.806Z,25.70
2018-06-04T08:35:56.521Z,25.70
2018-06-04T08:38:25.324Z,25.30
2018-06-04T08:40:54.057Z,25.30
2018-06-04T08:43:22.802Z,26.00
2018-06-04T08:45:51.545Z,26.00
2018-06-04T08:48:20.319Z,26.00
2018-06-04T08:50:49.017Z,26.60
2018-06-04T08:53:17.740Z,26.90
2018-06-04T08:55:46.462Z,27.10
2018-06-04T08:58:15.197Z,27.00
2018-06-04T09:00:43.931Z,27.20
2018-06-04T09:03:12.675Z,27.60
2018-06-04T09:05:41.471Z,28.20
2018-06-04T09:08:10.236Z,28.10
2018-06-04T09:10:38.991Z,27.80
2018-06-04T09:13:07.756Z,27.90
2018-06-04T09:20:33.757Z,28.10
2018-06-04T09:23:02.499Z,27.80
2018-06-04T09:27:59.701Z,27.30
2018-06-04T09:30:28.495Z,27.50
2018-06-04T09:32:57.239Z,27.60
2018-06-04T09:35:26.289Z,27.70
2018-06-04T09:37:55.012Z,27.20
2018-06-04T09:40:23.734Z,26.20
2018-06-04T09:42:52.461Z,26.10
2018-06-04T09:45:21.161Z,26.80
2018-06-04T09:47:49.907Z,27.50
2018-06-04T09:50:18.619Z,27.70
2018-06-04T09:52:47.339Z,27.40
2018-06-04T09:55:16.042Z,27.70
2018-06-04T09:57:44.827Z,27.30
2018-06-04T10:00:18.079Z,27.00
2018-06-04T10:02:46.999Z,27.50
2018-06-04T10:05:18.315Z,28.20
2018-06-04T10:07:47.219Z,28.50
2018-06-04T10:10:15.979Z,28.70
2018-06-04T10:12:44.734Z,28.20
2018-06-04T10:15:13.514Z,28.20
2018-06-04T10:17:42.239Z,28.50
2018-06-04T10:20:11.441Z,28.80
2018-06-04T10:22:40.351Z,29.70
2018-06-04T10:25:09.062Z,30.20
2018-06-04T10:27:37.787Z,30.50
2018-06-04T10:30:06.507Z,30.00
2018-06-04T10:32:35.259Z,29.70
2018-06-04T10:35:07.859Z,28.80
2018-06-04T10:37:36.669Z,29.10
2018-06-04T10:40:05.417Z,29.40
2018-06-04T10:42:34.124Z,29.00
2018-06-04T10:45:03.387Z,28.60
2018-06-04T10:47:35.191Z,28.20
2018-06-04T10:50:04.000Z,27.30
2018-06-04T10:52:32.719Z,27.80
2018-06-04T10:55:01.438Z,28.50
2018-06-04T10:57:30.234Z,28.40
2018-06-04T10:59:59.004Z,28.20
2018-06-04T11:02:27.734Z,28.10
2018-06-04T11:07:25.046Z,28.90
2018-06-04T11:09:54.302Z,29.50
2018-06-04T11:17:20.333Z,30.10
2018-06-04T11:19:49.094Z,29.60
2018-06-04T11:22:17.869Z,29.00
2018-06-04T11:24:46.649Z,29.40
2018-06-04T11:27:15.327Z,29.40
2018-06-04T11:29:44.031Z,29.20
2018-06-04T11:32:14.679Z,29.80
2018-06-04T11:34:43.899Z,30.00
2018-06-04T11:37:12.667Z,30.20
2018-06-04T11:39:41.352Z,30.00
2018-06-04T11:42:10.041Z,29.90
2018-06-04T11:44:38.757Z,29.60
2018-06-04T11:47:07.475Z,28.70
2018-06-04T11:49:36.212Z,29.40
2018-06-04T11:52:04.959Z,29.80
2018-06-04T11:54:33.668Z,29.30
2018-06-04T11:57:02.442Z,29.60
2018-06-04T11:59:31.155Z,29.60
2018-06-04T12:01:59.866Z,29.60
2018-06-04T12:04:28.571Z,30.30
2018-06-04T12:06:57.337Z,30.30
2018-06-04T12:09:26.221Z,29.60
2018-06-04T12:11:54.945Z,29.10
2018-06-04T12:14:23.654Z,29.50
2018-06-04T12:16:52.391Z,29.40
2018-06-04T12:21:49.679Z,29.50
2018-06-04T12:24:18.353Z,29.70
2018-06-04T12:26:47.078Z,29.40
2018-06-04T12:29:15.952Z,30.10
2018-06-04T12:31:45.311Z,30.50
2018-06-04T12:34:14.073Z,29.40
2018-06-04T12:36:42.774Z,29.60
2018-06-04T12:39:12.066Z,28.60
2018-06-04T12:41:40.853Z,28.90
2018-06-04T12:44:09.558Z,29.10
2018-06-04T12:46:38.291Z,29.50
2018-06-04T12:49:07.038Z,30.30
2018-06-04T12:54:04.321Z,30.50
2018-06-04T12:59:02.131Z,31.50
2018-06-04T13:01:30.914Z,31.90
2018-06-04T13:03:59.661Z,31.00
2018-06-04T13:06:28.373Z,30.10
2018-06-04T13:08:57.088Z,30.30
2018-06-04T13:11:25.766Z,31.20
2018-06-04T13:13:54.589Z,30.60
2018-06-04T13:16:23.335Z,30.60
2018-06-04T13:18:52.083Z,30.60
2018-06-04T13:21:28.275Z,30.90
2018-06-04T13:23:57.014Z,30.30
2018-06-04T13:26:25.843Z,29.50
2018-06-04T13:28:54.728Z,29.30
2018-06-04T13:31:23.526Z,30.10
2018-06-04T13:33:52.287Z,30.20
2018-06-04T13:38:49.623Z,30.00
2018-06-04T13:41:18.906Z,30.30
2018-06-04T13:43:47.687Z,30.50
2018-06-04T13:46:16.999Z,30.40
2018-06-04T13:48:45.819Z,29.90
2018-06-04T13:51:14.695Z,29.90
2018-06-04T13:53:43.514Z,30.20
2018-06-04T13:56:12.409Z,30.70
2018-06-04T13:58:41.133Z,30.70
2018-06-04T14:01:09.949Z,30.70
2018-06-04T14:03:38.748Z,30.30
2018-06-04T14:06:07.533Z,30.30
2018-06-04T14:08:36.367Z,30.20
2018-06-04T14:11:05.156Z,30.10
2018-06-04T14:13:33.913Z,30.00
2018-06-04T14:16:02.603Z,29.60
2018-06-04T14:18:31.375Z,28.90
2018-06-04T14:21:00.161Z,28.90
2018-06-04T14:25:57.469Z,28.60
2018-06-04T14:28:26.241Z,28.60
2018-06-04T14:30:55.164Z,28.50
2018-06-04T14:33:23.891Z,28.70
2018-06-04T14:35:52.641Z,28.70
2018-06-04T14:38:21.364Z,28.50
2018-06-04T14:40:50.172Z,28.60
2018-06-04T14:45:47.496Z,28.10
2018-06-04T14:48:16.844Z,27.70
2018-06-04T14:53:14.733Z,27.90
2018-06-04T14:55:43.595Z,28.00
2018-06-04T14:58:12.688Z,28.40
2018-06-04T15:00:41.458Z,28.80
2018-06-04T15:03:10.583Z,28.90
2018-06-04T15:05:39.403Z,29.10
2018-06-04T15:08:08.253Z,28.50
2018-06-04T15:10:37.024Z,28.20
2018-06-04T15:13:06.621Z,27.80
2018-06-04T15:15:35.423Z,27.60
2018-06-04T15:18:04.303Z,27.20
2018-06-04T15:20:33.079Z,27.00
2018-06-04T15:23:01.826Z,26.80
2018-06-04T15:25:30.593Z,26.50
2018-06-04T15:27:59.386Z,26.50
2018-06-04T15:30:28.146Z,26.50
2018-06-04T15:32:56.974Z,26.20
2018-06-04T15:35:25.767Z,26.10
2018-06-04T15:40:23.639Z,25.80
2018-06-04T15:42:52.489Z,25.80
2018-06-04T15:45:22.223Z,25.70
2018-06-04T15:47:50.987Z,25.70
2018-06-04T15:50:19.765Z,25.50
2018-06-04T15:52:48.498Z,25.50
2018-06-04T15:57:45.748Z,25.30
2018-06-04T16:00:14.538Z,25.10
2018-06-04T16:02:43.388Z,25.20
2018-06-04T16:05:13.085Z,25.00
2018-06-04T16:07:41.950Z,24.70
2018-06-04T16:12:40.294Z,24.40
2018-06-04T16:15:09.221Z,24.50
2018-06-04T16:17:37.950Z,24.40
2018-06-04T16:20:06.759Z,24.50
2018-06-04T16:22:35.521Z,24.40
2018-06-04T16:25:04.311Z,24.40
2018-06-04T16:27:33.099Z,24.20
2018-06-04T16:30:01.914Z,24.40
2018-06-04T16:32:30.800Z,24.30
2018-06-04T16:34:59.575Z,24.20
2018-06-04T16:37:28.364Z,24.20
2018-06-04T16:42:26.341Z,24.20
2018-06-04T16:44:55.142Z,24.40
2018-06-04T16:47:23.833Z,24.50
2018-06-04T16:49:52.571Z,24.40
2018-06-04T16:54:50.793Z,24.60
2018-06-04T16:57:19.531Z,24.40
2018-06-04T16:59:48.299Z,24.20
2018-06-04T17:02:17.033Z,24.00
2018-06-04T17:04:45.778Z,24.10
2018-06-04T17:07:14.545Z,24.10
2018-06-04T17:09:43.348Z,23.90
2018-06-04T17:12:12.099Z,23.70
2018-06-04T17:14:40.839Z,23.60
2018-06-04T17:17:09.581Z,23.60
2018-06-04T17:19:38.293Z,23.60
2018-06-04T17:22:07.087Z,23.70
2018-06-04T17:24:35.819Z,23.60
2018-06-04T17:27:04.580Z,23.50
2018-06-04T17:29:34.585Z,23.40
2018-06-04T17:32:03.317Z,23.40
2018-06-04T17:34:32.038Z,23.40
2018-06-04T17:37:00.784Z,23.40
2018-06-04T17:39:29.523Z,23.40
2018-06-04T17:41:58.283Z,23.40
2018-06-04T17:44:26.990Z,23.40
2018-06-04T17:46:55.776Z,23.30
2018-06-04T17:49:24.598Z,23.30
2018-06-04T17:51:53.365Z,23.20
2018-06-04T17:54:22.114Z,23.00
2018-06-04T17:56:50.930Z,22.90
2018-06-04T17:59:19.656Z,22.80
2018-06-04T18:01:48.381Z,22.70
2018-06-04T18:04:17.123Z,22.70
2018-06-04T18:09:14.393Z,22.60
2018-06-04T18:14:11.703Z,22.30
2018-06-04T18:16:40.498Z,22.20
2018-06-04T18:19:09.301Z,22.00
2018-06-04T18:21:38.078Z,21.90
2018-06-04T18:24:06.866Z,21.80
2018-06-04T18:26:35.669Z,21.70
2018-06-04T18:29:04.512Z,21.70
2018-06-04T18:31:33.285Z,21.60
2018-06-04T18:36:30.614Z,21.60
2018-06-04T18:38:59.964Z,21.50
2018-06-04T18:41:28.773Z,21.40
2018-06-04T18:43:57.534Z,21.40
2018-06-04T18:46:26.291Z,21.40
2018-06-04T18:48:55.758Z,21.40
2018-06-04T18:51:24.466Z,21.20
2018-06-04T18:53:53.199Z,21.30
2018-06-04T18:56:21.973Z,21.30
2018-06-04T18:58:50.791Z,21.10
2018-06-04T19:01:19.556Z,21.00
2018-06-04T19:06:16.950Z,20.90
2018-06-04T19:08:45.784Z,20.80
2018-06-04T19:11:14.559Z,20.80
2018-06-04T19:13:43.326Z,20.70
2018-06-04T19:16:12.125Z,20.70
2018-06-04T19:18:40.903Z,20.60
2018-06-04T19:21:09.726Z,20.50
2018-06-04T19:23:38.505Z,20.40
2018-06-04T19:26:07.341Z,20.30
2018-06-04T19:28:36.231Z,20.30
2018-06-04T19:31:05.001Z,20.20
2018-06-04T19:36:02.359Z,20.10
2018-06-04T19:38:31.140Z,20.00
2018-06-04T19:41:00.067Z,19.90
2018-06-04T19:43:28.856Z,19.90
2018-06-04T19:45:57.616Z,19.70
2018-06-04T19:48:26.522Z,19.60
2018-06-04T19:50:55.491Z,19.50
2018-06-04T19:53:24.414Z,19.40
2018-06-04T19:55:53.381Z,19.30
2018-06-04T19:58:23.053Z,19.20
2018-06-04T20:00:51.882Z,19.10
2018-06-04T20:03:21.596Z,19.10
2018-06-04T20:08:19.774Z,19.00
2018-06-04T20:10:48.584Z,18.90
2018-06-04T20:13:17.734Z,18.90
2018-06-04T20:15:46.649Z,18.80
2018-06-04T20:18:15.583Z,18.80
2018-06-04T20:20:45.796Z,18.80
2018-06-04T20:23:14.594Z,18.80
2018-06-04T20:25:43.419Z,18.70
2018-06-04T20:28:12.219Z,18.60
2018-06-04T20:30:41.064Z,18.40
2018-06-04T20:33:09.905Z,18.40
2018-06-04T20:38:07.271Z,18.40
2018-06-04T20:40:36.129Z,18.40
2018-06-04T20:43:05.757Z,18.40
2018-06-04T20:45:34.490Z,18.40
2018-06-04T20:48:03.289Z,18.50
2018-06-04T20:50:32.058Z,18.50
2018-06-04T20:53:00.811Z,18.40
2018-06-04T20:55:29.523Z,18.30
2018-06-04T21:00:27.387Z,18.00
2018-06-04T21:02:56.159Z,18.00
2018-06-04T21:05:24.938Z,17.90
2018-06-04T21:07:53.657Z,17.80
2018-06-04T21:10:22.439Z,17.70
2018-06-04T21:12:51.153Z,17.60
2018-06-04T21:15:20.433Z,17.50
2018-06-04T21:17:49.173Z,17.40
2018-06-04T21:20:17.972Z,17.30
2018-06-04T21:22:46.701Z,17.30
2018-06-04T21:27:44.794Z,17.20
2018-06-04T21:30:13.526Z,17.20
2018-06-04T21:32:42.281Z,17.20
2018-06-04T21:35:11.013Z,17.20
2018-06-04T21:37:39.743Z,17.20
2018-06-04T21:40:08.473Z,17.30
2018-06-04T21:42:37.230Z,17.30
2018-06-04T21:45:05.997Z,17.30
2018-06-04T21:47:34.758Z,17.30
2018-06-04T21:50:03.534Z,17.30
2018-06-04T21:52:32.236Z,17.20
2018-06-04T21:57:29.569Z,17.00
2018-06-04T21:59:58.256Z,16.90
2018-06-04T22:02:26.950Z,17.10
2018-06-04T22:04:55.633Z,17.10
2018-06-04T22:07:24.319Z,17.40
2018-06-04T22:09:53.021Z,17.60
2018-06-04T22:12:21.745Z,17.70
2018-06-04T22:14:50.453Z,17.80
2018-06-04T22:17:19.158Z,17.90
2018-06-04T22:19:47.865Z,18.00
2018-06-04T22:22:16.572Z,18.00
2018-06-04T22:27:13.805Z,18.00
2018-06-04T22:29:42.538Z,18.00
2018-06-04T22:32:11.226Z,18.00
2018-06-04T22:37:08.440Z,17.70
2018-06-04T22:39:37.133Z,17.60
2018-06-04T22:42:05.845Z,17.50
2018-06-04T22:44:34.542Z,17.40
2018-06-04T22:47:03.291Z,17.50
2018-06-04T22:49:32.109Z,17.20
2018-06-04T22:52:00.799Z,17.00
2018-06-04T22:56:57.974Z,16.50
2018-06-04T23:01:55.159Z,16.50
2018-06-04T23:04:23.843Z,16.50
2018-06-04T23:06:52.511Z,16.60
2018-06-04T23:11:49.676Z,16.50
2018-06-04T23:16:46.846Z,16.40
2018-06-04T23:19:15.548Z,16.20
2018-06-04T23:21:44.256Z,16.10
2018-06-04T23:24:12.946Z,16.00
2018-06-04T23:26:41.634Z,15.90
2018-06-04T23:29:10.319Z,15.80
2018-06-04T23:31:39.012Z,15.90
2018-06-04T23:34:07.713Z,15.90
2018-06-04T23:36:36.395Z,16.00
2018-06-04T23:39:08.546Z,15.90
2018-06-04T23:41:37.386Z,15.90
2018-06-04T23:44:06.066Z,15.90
2018-06-04T23:46:34.779Z,15.90
2018-06-04T23:49:03.551Z,16.00
2018-06-04T23:51:32.310Z,16.30
2018-06-04T23:54:00.985Z,16.30
2018-06-04T23:56:29.773Z,16.20
2018-06-04T23:58:58.425Z,16.20
